sensor_id;sensor_type;location;lat;lon;timestamp;P1;durP1;ratioP1;P2;durP2;ratioP2
57321;SDS011;43159;51.006;18.224;2024-01-06T00:05:48;63.80;;;24.40;;
57321;SDS011;43159;51.006;18.224;2024-01-06T00:15:29;55.40;;;21.70;;
57321;SDS011;43159;51.006;18.224;2024-01-06T00:25:11;43.60;;;18.10;;
57321;SDS011;43159;51.006;18.224;2024-01-06T00:34:53;69.40;;;25.50;;
57321;SDS011;43159;51.006;18.224;2024-01-06T00:44:35;73.60;;;28.30;;
57321;SDS011;43159;51.006;18.224;2024-01-06T00:54:17;42.00;;;14.10;;
57321;SDS011;43159;51.006;18.224;2024-01-06T01:03:59;74.20;;;26.60;;
57321;SDS011;43159;51.006;18.224;2024-01-06T01:13:41;61.80;;;22.30;;
57321;SDS011;43159;51.006;18.224;2024-01-06T01:23:23;47.70;;;21.40;;
57321;SDS011;43159;51.006;18.224;2024-01-06T01:33:04;68.30;;;23.60;;
57321;SDS011;43159;51.006;18.224;2024-01-06T01:42:46;60.50;;;21.00;;
57321;SDS011;43159;51.006;18.224;2024-01-06T01:52:30;58.70;;;26.00;;
57321;SDS011;43159;51.006;18.224;2024-01-06T02:02:11;65.20;;;24.10;;
57321;SDS011;43159;51.006;18.224;2024-01-06T02:11:57;65.80;;;21.40;;
57321;SDS011;43159;51.006;18.224;2024-01-06T02:21:41;57.40;;;23.80;;
57321;SDS011;43159;51.006;18.224;2024-01-06T02:31:23;74.40;;;29.20;;
57321;SDS011;43159;51.006;18.224;2024-01-06T02:41:05;65.10;;;22.00;;
57321;SDS011;43159;51.006;18.224;2024-01-06T02:50:47;53.30;;;17.60;;
57321;SDS011;43159;51.006;18.224;2024-01-06T03:07:45;55.10;;;22.40;;
57321;SDS011;43159;51.006;18.224;2024-01-06T03:17:26;64.60;;;21.50;;
57321;SDS011;43159;51.006;18.224;2024-01-06T03:27:10;49.70;;;19.30;;
57321;SDS011;43159;51.006;18.224;2024-01-06T03:36:52;48.60;;;20.10;;
57321;SDS011;43159;51.006;18.224;2024-01-06T03:46:34;38.10;;;16.50;;
57321;SDS011;43159;51.006;18.224;2024-01-06T03:56:16;31.20;;;13.60;;
57321;SDS011;43159;51.006;18.224;2024-01-06T04:05:58;37.80;;;15.80;;
57321;SDS011;43159;51.006;18.224;2024-01-06T04:15:40;32.90;;;15.50;;
57321;SDS011;43159;51.006;18.224;2024-01-06T04:25:22;48.80;;;15.80;;
57321;SDS011;43159;51.006;18.224;2024-01-06T04:35:06;30.60;;;12.20;;
57321;SDS011;43159;51.006;18.224;2024-01-06T04:44:49;23.70;;;11.70;;
57321;SDS011;43159;51.006;18.224;2024-01-06T04:54:30;43.10;;;16.50;;
57321;SDS011;43159;51.006;18.224;2024-01-06T05:04:14;29.60;;;12.30;;
57321;SDS011;43159;51.006;18.224;2024-01-06T05:13:55;34.90;;;13.00;;
57321;SDS011;43159;51.006;18.224;2024-01-06T05:23:37;16.70;;;9.70;;
57321;SDS011;43159;51.006;18.224;2024-01-06T05:33:18;38.30;;;14.40;;
57321;SDS011;43159;51.006;18.224;2024-01-06T05:43:00;17.00;;;6.70;;
57321;SDS011;43159;51.006;18.224;2024-01-06T05:52:42;28.90;;;14.80;;
57321;SDS011;43159;51.006;18.224;2024-01-06T06:02:25;24.30;;;13.10;;
57321;SDS011;43159;51.006;18.224;2024-01-06T06:12:07;28.80;;;12.10;;
57321;SDS011;43159;51.006;18.224;2024-01-06T06:21:49;28.40;;;14.60;;
57321;SDS011;43159;51.006;18.224;2024-01-06T06:31:30;24.70;;;11.20;;
57321;SDS011;43159;51.006;18.224;2024-01-06T06:41:12;24.90;;;7.50;;
57321;SDS011;43159;51.006;18.224;2024-01-06T06:50:54;23.90;;;10.40;;
57321;SDS011;43159;51.006;18.224;2024-01-06T07:00:35;31.90;;;13.60;;
57321;SDS011;43159;51.006;18.224;2024-01-06T07:10:18;27.20;;;14.10;;
57321;SDS011;43159;51.006;18.224;2024-01-06T07:20:01;27.30;;;11.50;;
57321;SDS011;43159;51.006;18.224;2024-01-06T07:29:43;36.80;;;14.30;;
57321;SDS011;43159;51.006;18.224;2024-01-06T07:39:25;29.50;;;13.40;;
57321;SDS011;43159;51.006;18.224;2024-01-06T07:49:13;28.30;;;11.50;;
57321;SDS011;43159;51.006;18.224;2024-01-06T07:58:57;35.30;;;11.40;;
57321;SDS011;43159;51.006;18.224;2024-01-06T08:08:39;29.60;;;14.70;;
57321;SDS011;43159;51.006;18.224;2024-01-06T08:18:21;43.50;;;15.10;;
57321;SDS011;43159;51.006;18.224;2024-01-06T08:28:03;41.80;;;16.20;;
57321;SDS011;43159;51.006;18.224;2024-01-06T08:37:46;23.60;;;11.80;;
57321;SDS011;43159;51.006;18.224;2024-01-06T08:47:29;23.60;;;10.60;;
57321;SDS011;43159;51.006;18.224;2024-01-06T08:49:54;35.20;;;17.30;;
57321;SDS011;43159;51.006;18.224;2024-01-06T08:59:37;24.80;;;12.00;;
57321;SDS011;43159;51.006;18.224;2024-01-06T09:09:19;44.50;;;19.40;;
57321;SDS011;43159;51.006;18.224;2024-01-06T09:19:02;29.00;;;12.70;;
57321;SDS011;43159;51.006;18.224;2024-01-06T09:28:44;19.70;;;10.00;;
57321;SDS011;43159;51.006;18.224;2024-01-06T09:38:28;17.60;;;8.20;;
57321;SDS011;43159;51.006;18.224;2024-01-06T09:48:19;22.80;;;10.60;;
57321;SDS011;43159;51.006;18.224;2024-01-06T09:58:02;15.90;;;5.50;;
57321;SDS011;43159;51.006;18.224;2024-01-06T10:07:46;26.30;;;12.30;;
57321;SDS011;43159;51.006;18.224;2024-01-06T10:17:38;23.50;;;9.40;;
57321;SDS011;43159;51.006;18.224;2024-01-06T10:27:25;17.40;;;5.90;;
57321;SDS011;43159;51.006;18.224;2024-01-06T10:37:09;24.40;;;11.50;;
57321;SDS011;43159;51.006;18.224;2024-01-06T10:46:52;35.60;;;16.30;;
57321;SDS011;43159;51.006;18.224;2024-01-06T10:56:37;29.70;;;14.90;;
57321;SDS011;43159;51.006;18.224;2024-01-06T11:06:20;36.20;;;19.10;;
57321;SDS011;43159;51.006;18.224;2024-01-06T11:16:12;34.40;;;16.20;;
57321;SDS011;43159;51.006;18.224;2024-01-06T11:26:32;48.00;;;24.40;;
57321;SDS011;43159;51.006;18.224;2024-01-06T11:36:19;40.20;;;18.20;;
57321;SDS011;43159;51.006;18.224;2024-01-06T11:46:43;40.40;;;16.50;;
57321;SDS011;43159;51.006;18.224;2024-01-06T11:56:26;31.20;;;15.80;;
57321;SDS011;43159;51.006;18.224;2024-01-06T12:06:10;41.70;;;17.50;;
57321;SDS011;43159;51.006;18.224;2024-01-06T12:15:54;30.90;;;11.00;;
57321;SDS011;43159;51.006;18.224;2024-01-06T12:25:36;45.60;;;20.30;;
57321;SDS011;43159;51.006;18.224;2024-01-06T12:35:21;39.40;;;18.50;;
57321;SDS011;43159;51.006;18.224;2024-01-06T12:45:05;44.70;;;19.40;;
57321;SDS011;43159;51.006;18.224;2024-01-06T12:54:49;33.90;;;13.30;;
57321;SDS011;43159;51.006;18.224;2024-01-06T13:04:32;41.00;;;20.00;;
57321;SDS011;43159;51.006;18.224;2024-01-06T13:14:16;31.90;;;14.80;;
57321;SDS011;43159;51.006;18.224;2024-01-06T13:24:01;23.10;;;12.40;;
57321;SDS011;43159;51.006;18.224;2024-01-06T13:33:46;39.90;;;13.90;;
57321;SDS011;43159;51.006;18.224;2024-01-06T13:43:30;37.30;;;13.50;;
57321;SDS011;43159;51.006;18.224;2024-01-06T14:00:30;26.30;;;9.80;;
57321;SDS011;43159;51.006;18.224;2024-01-06T14:10:15;30.30;;;7.90;;
57321;SDS011;43159;51.006;18.224;2024-01-06T14:19:58;27.80;;;13.30;;
57321;SDS011;43159;51.006;18.224;2024-01-06T14:29:40;23.80;;;11.90;;
57321;SDS011;43159;51.006;18.224;2024-01-06T14:39:22;32.60;;;14.00;;
57321;SDS011;43159;51.006;18.224;2024-01-06T14:49:07;29.60;;;11.50;;
57321;SDS011;43159;51.006;18.224;2024-01-06T14:58:49;26.70;;;9.30;;
57321;SDS011;43159;51.006;18.224;2024-01-06T15:08:31;38.10;;;14.30;;
57321;SDS011;43159;51.006;18.224;2024-01-06T15:18:15;30.30;;;14.90;;
57321;SDS011;43159;51.006;18.224;2024-01-06T15:27:58;18.60;;;10.90;;
57321;SDS011;43159;51.006;18.224;2024-01-06T15:37:40;26.30;;;10.80;;
57321;SDS011;43159;51.006;18.224;2024-01-06T15:47:25;48.00;;;19.10;;
57321;SDS011;43159;51.006;18.224;2024-01-06T15:57:15;23.10;;;10.80;;
57321;SDS011;43159;51.006;18.224;2024-01-06T16:06:56;24.00;;;12.00;;
57321;SDS011;43159;51.006;18.224;2024-01-06T16:16:43;41.20;;;11.40;;
57321;SDS011;43159;51.006;18.224;2024-01-06T16:26:25;32.60;;;12.60;;
57321;SDS011;43159;51.006;18.224;2024-01-06T16:36:09;22.70;;;10.20;;
57321;SDS011;43159;51.006;18.224;2024-01-06T16:45:53;26.40;;;9.60;;
57321;SDS011;43159;51.006;18.224;2024-01-06T16:55:37;35.70;;;15.50;;
57321;SDS011;43159;51.006;18.224;2024-01-06T17:05:21;24.30;;;10.10;;
57321;SDS011;43159;51.006;18.224;2024-01-06T17:15:04;47.50;;;17.30;;
57321;SDS011;43159;51.006;18.224;2024-01-06T17:24:46;13.20;;;4.40;;
57321;SDS011;43159;51.006;18.224;2024-01-06T17:34:30;56.00;;;22.00;;
57321;SDS011;43159;51.006;18.224;2024-01-06T17:44:13;25.40;;;12.30;;
57321;SDS011;43159;51.006;18.224;2024-01-06T17:53:59;36.50;;;13.50;;
57321;SDS011;43159;51.006;18.224;2024-01-06T18:03:41;47.70;;;16.20;;
57321;SDS011;43159;51.006;18.224;2024-01-06T18:13:23;10.80;;;5.00;;
57321;SDS011;43159;51.006;18.224;2024-01-06T18:23:12;23.60;;;10.90;;
57321;SDS011;43159;51.006;18.224;2024-01-06T18:32:55;25.10;;;10.30;;
57321;SDS011;43159;51.006;18.224;2024-01-06T18:42:38;26.60;;;11.20;;
57321;SDS011;43159;51.006;18.224;2024-01-06T18:52:20;39.70;;;15.60;;
57321;SDS011;43159;51.006;18.224;2024-01-06T19:09:27;44.30;;;15.00;;
57321;SDS011;43159;51.006;18.224;2024-01-06T19:19:11;42.10;;;15.50;;
57321;SDS011;43159;51.006;18.224;2024-01-06T19:28:54;26.70;;;8.90;;
57321;SDS011;43159;51.006;18.224;2024-01-06T19:38:37;50.40;;;21.70;;
57321;SDS011;43159;51.006;18.224;2024-01-06T19:48:22;16.90;;;5.70;;
57321;SDS011;43159;51.006;18.224;2024-01-06T19:58:04;18.90;;;10.20;;
57321;SDS011;43159;51.006;18.224;2024-01-06T20:07:46;71.70;;;19.90;;
57321;SDS011;43159;51.006;18.224;2024-01-06T20:17:29;20.00;;;6.60;;
57321;SDS011;43159;51.006;18.224;2024-01-06T20:27:12;13.30;;;6.70;;
57321;SDS011;43159;51.006;18.224;2024-01-06T20:36:54;16.80;;;6.10;;
57321;SDS011;43159;51.006;18.224;2024-01-06T20:46:37;22.20;;;7.80;;
57321;SDS011;43159;51.006;18.224;2024-01-06T20:56:20;14.20;;;5.10;;
57321;SDS011;43159;51.006;18.224;2024-01-06T21:06:07;21.30;;;8.10;;
57321;SDS011;43159;51.006;18.224;2024-01-06T21:16:11;22.40;;;8.10;;
57321;SDS011;43159;51.006;18.224;2024-01-06T21:25:56;16.90;;;7.20;;
57321;SDS011;43159;51.006;18.224;2024-01-06T21:35:40;18.80;;;6.10;;
57321;SDS011;43159;51.006;18.224;2024-01-06T21:45:33;15.50;;;7.70;;
57321;SDS011;43159;51.006;18.224;2024-01-06T21:55:15;22.50;;;8.70;;
57321;SDS011;43159;51.006;18.224;2024-01-06T22:05:04;25.80;;;6.10;;
57321;SDS011;43159;51.006;18.224;2024-01-06T22:14:47;10.30;;;3.10;;
57321;SDS011;43159;51.006;18.224;2024-01-06T22:24:30;34.60;;;5.80;;
57321;SDS011;43159;51.006;18.224;2024-01-06T22:34:13;13.20;;;5.40;;
57321;SDS011;43159;51.006;18.224;2024-01-06T22:43:56;19.50;;;5.80;;
57321;SDS011;43159;51.006;18.224;2024-01-06T22:53:38;9.90;;;3.80;;
57321;SDS011;43159;51.006;18.224;2024-01-06T23:03:20;20.30;;;6.70;;
57321;SDS011;43159;51.006;18.224;2024-01-06T23:13:04;21.30;;;7.60;;
57321;SDS011;43159;51.006;18.224;2024-01-06T23:22:46;13.40;;;5.70;;
57321;SDS011;43159;51.006;18.224;2024-01-06T23:32:32;12.40;;;5.40;;
57321;SDS011;43159;51.006;18.224;2024-01-06T23:42:13;15.50;;;4.50;;
57321;SDS011;43159;51.006;18.224;2024-01-06T23:51:55;15.80;;;5.90;;
